Time;durP1;ratioP1;P1;durP2;ratioP2;P2;SDS_P1;SDS_P2;PMS_P1;PMS_P2;Temp;Humidity;BMP_temperature;BMP_pressure;BME280_temperature;BME280_humidity;BME280_pressure;Samples;Min_cycle;Max_cycle;Signal;HPM_P1;HPM_P2
2021/04/29 02:46:32;;;;;;;19.25;18.35;;;13.20;99.90;;;;;;5866883;22;88474;-82
2021/04/29 02:48:58;;;;;;;21.13;20.25;;;13.20;99.90;;;;;;4956900;28;87146;-81
2021/04/29 02:51:24;;;;;;;19.40;18.60;;;13.00;99.90;;;;;;4976212;28;87639;-85
2021/04/29 02:53:50;;;;;;;15.20;14.60;;;13.20;99.90;;;;;;4949723;28;88992;-83
2021/04/29 02:56:17;;;;;;;10.00;9.50;;;13.20;99.90;;;;;;4974998;28;86807;-83
2021/04/29 02:58:47;;;;;;;8.45;8.15;;;13.30;99.90;;;;;;4981021;28;86908;-83
2021/04/29 03:01:14;;;;;;;9.35;8.95;;;13.30;99.90;;;;;;4981838;28;87968;-83
2021/04/29 03:03:41;;;;;;;9.20;8.60;;;13.30;99.90;;;;;;4985170;28;88348;-84
2021/04/29 03:06:07;;;;;;;12.68;11.98;;;13.20;99.90;;;;;;4984683;28;86997;-85
2021/04/29 03:08:33;;;;;;;15.48;14.68;;;13.10;99.90;;;;;;4967725;28;86923;-83
2021/04/29 03:11:00;;;;;;;12.50;11.70;;;13.00;99.90;;;;;;4962498;28;87243;-86
2021/04/29 03:13:26;;;;;;;12.13;11.32;;;;;;;;;;4983791;28;87848;-84
2021/04/29 03:15:52;;;;;;;10.80;10.02;;;13.00;99.90;;;;;;4984413;28;86990;-84
2021/04/29 03:18:18;;;;;;;7.15;6.75;;;13.00;99.90;;;;;;4966259;28;86128;-83
2021/04/29 03:20:43;;;;;;;10.00;9.30;;;13.00;99.90;;;;;;4981626;28;87176;-86
2021/04/29 03:23:09;;;;;;;7.47;7.07;;;13.00;99.50;;;;;;4971373;28;86887;-86
2021/04/29 03:25:35;;;;;;;8.30;7.85;;;13.00;99.00;;;;;;4982431;28;87843;-86
2021/04/29 03:28:01;;;;;;;10.85;10.25;;;13.00;99.10;;;;;;4975448;28;86871;-83
2021/04/29 03:30:26;;;;;;;12.43;11.48;;;13.10;98.80;;;;;;4966656;28;86766;-84
2021/04/29 03:32:53;;;;;;;14.32;13.48;;;;;;;;;;4966910;28;86737;-82
2021/04/29 03:35:18;;;;;;;15.75;14.77;;;13.10;98.30;;;;;;4981952;28;87422;-84
2021/04/29 03:37:44;;;;;;;24.85;23.60;;;13.10;98.40;;;;;;4956235;28;86924;-86
2021/04/29 03:40:12;;;;;;;26.38;24.92;;;13.00;98.50;;;;;;4947608;28;88102;-84
2021/04/29 03:42:38;;;;;;;30.75;29.27;;;;;;;;;;4969759;28;86978;-86
2021/04/29 03:45:05;;;;;;;18.23;17.25;;;12.90;94.80;;;;;;4966853;28;86948;-86
2021/04/29 03:47:31;;;;;;;18.83;17.73;;;12.80;94.70;;;;;;4953372;28;86572;-84
2021/04/29 03:49:56;;;;;;;18.10;17.00;;;12.70;94.40;;;;;;4950455;28;88297;-83
2021/04/29 03:52:22;;;;;;;17.02;16.02;;;12.70;94.50;;;;;;4947786;28;87914;-84
2021/04/29 03:54:48;;;;;;;15.27;14.27;;;12.60;94.80;;;;;;4947737;28;86858;-84
2021/04/29 03:57:13;;;;;;;22.42;21.23;;;12.60;94.70;;;;;;4962064;28;86860;-83
2021/04/29 03:59:39;;;;;;;25.63;24.20;;;12.50;94.30;;;;;;4955767;28;87509;-86
2021/04/29 04:02:05;;;;;;;27.45;25.90;;;12.50;93.70;;;;;;4946450;28;87851;-87
2021/04/29 04:04:30;;;;;;;27.88;26.48;;;12.40;93.80;;;;;;4944736;28;86321;-82
2021/04/29 04:06:56;;;;;;;30.95;29.35;;;12.50;93.60;;;;;;4950787;28;86369;-84
2021/04/29 04:09:22;;;;;;;14.13;13.32;;;13.10;95.80;;;;;;4950241;28;87179;-82
2021/04/29 04:11:48;;;;;;;11.65;11.02;;;12.50;92.10;;;;;;4951465;28;87930;-84
2021/04/29 04:14:14;;;;;;;12.27;11.48;;;12.60;90.90;;;;;;4950525;28;88262;-82
2021/04/29 04:16:39;;;;;;;14.20;13.32;;;12.60;90.80;;;;;;4949674;28;86857;-84
2021/04/29 04:19:05;;;;;;;10.88;10.07;;;12.60;89.90;;;;;;4948739;28;88935;-82
2021/04/29 04:21:32;;;;;;;11.52;10.68;;;13.10;92.40;;;;;;4949583;28;86971;-84
2021/04/29 04:23:58;;;;;;;12.20;11.25;;;12.70;86.40;;;;;;4955770;28;87366;-84
2021/04/29 04:26:23;;;;;;;12.57;11.60;;;12.70;85.50;;;;;;4950060;28;86951;-83
2021/04/29 04:28:49;;;;;;;11.50;10.63;;;12.70;83.70;;;;;;4939697;28;88606;-83
2021/04/29 04:31:15;;;;;;;13.65;12.75;;;;;;;;;;4930794;28;88019;-82
2021/04/29 04:33:43;;;;;;;12.80;11.90;;;12.70;83.60;;;;;;4949173;28;86847;-83
2021/04/29 04:36:09;;;;;;;13.95;12.95;;;12.80;84.50;;;;;;4952554;28;86650;-83
2021/04/29 04:38:35;;;;;;;12.15;11.27;;;12.70;84.80;;;;;;4949814;28;88284;-84
2021/04/29 04:41:01;;;;;;;13.88;12.80;;;;;;;;;;4950707;28;88884;-86
2021/04/29 04:43:27;;;;;;;10.77;9.90;;;12.60;86.40;;;;;;4949560;28;86697;-85
2021/04/29 04:45:53;;;;;;;14.88;13.82;;;;;;;;;;4948266;28;87098;-85
2021/04/29 04:48:19;;;;;;;10.63;9.75;;;12.60;87.90;;;;;;4948737;28;87496;-83
2021/04/29 04:50:47;;;;;;;13.23;12.32;;;12.70;89.00;;;;;;4945700;28;87107;-84
2021/04/29 04:53:13;;;;;;;18.88;17.73;;;12.70;89.40;;;;;;4948841;28;87102;-85
2021/04/29 04:55:46;;;;;;;14.63;13.63;;;;;;;;;;4951698;28;86350;-85
2021/04/29 04:58:12;;;;;;;13.48;12.60;;;12.70;89.60;;;;;;4949030;28;87227;-84
2021/04/29 05:00:38;;;;;;;14.60;13.70;;;12.80;90.40;;;;;;4947388;28;86930;-86
2021/04/29 05:03:04;;;;;;;9.35;8.60;;;12.80;90.40;;;;;;4947491;28;87915;-85
2021/04/29 05:05:30;;;;;;;11.90;11.10;;;;;;;;;;4948770;28;86971;-85
2021/04/29 05:08:07;;;;;;;11.07;10.15;;;12.80;91.50;;;;;;4946933;28;86659;-84
2021/04/29 05:10:34;;;;;;;9.98;9.13;;;12.70;92.10;;;;;;4949743;28;87009;-85
2021/04/29 05:13:03;;;;;;;9.95;9.30;;;12.70;92.30;;;;;;4948297;28;87773;-84
2021/04/29 05:15:29;;;;;;;9.77;8.93;;;12.60;92.60;;;;;;4947712;28;86778;-88
2021/04/29 05:17:55;;;;;;;9.07;8.20;;;12.60;92.80;;;;;;4948554;28;87674;-84
2021/04/29 05:20:38;;;;;;;14.23;13.07;;;12.40;95.80;;;;;;4948508;28;86148;-84
2021/04/29 05:23:04;;;;;;;9.32;8.63;;;12.60;93.00;;;;;;4947522;28;86844;-84
2021/04/29 05:25:30;;;;;;;7.57;6.97;;;12.60;92.50;;;;;;4928179;28;87079;-85
2021/04/29 05:28:00;;;;;;;8.57;7.97;;;12.60;92.20;;;;;;4949882;28;87849;-83
2021/04/29 05:30:26;;;;;;;9.02;8.50;;;12.70;91.70;;;;;;4926281;28;89460;-87
2021/04/29 05:32:51;;;;;;;10.52;10.02;;;13.30;95.80;;;;;;4948195;28;86947;-85
2021/04/29 05:35:17;;;;;;;8.55;7.95;;;12.80;91.70;;;;;;4946316;28;86639;-85
2021/04/29 05:37:43;;;;;;;9.65;8.85;;;12.80;91.90;;;;;;4947125;28;89519;-83
2021/04/29 05:40:11;;;;;;;8.23;7.70;;;12.70;92.20;;;;;;4959704;28;86811;-85
2021/04/29 05:42:37;;;;;;;7.68;7.25;;;12.80;92.10;;;;;;4948986;28;86364;-84
2021/04/29 05:45:04;;;;;;;8.63;8.23;;;12.80;91.80;;;;;;4950123;28;85967;-85
2021/04/29 05:58:17;;;;;;;10.45;9.95;;;12.80;91.40;;;;;;4926909;28;86757;-83
2021/04/29 06:04:20;;;;;;;11.05;10.52;;;12.90;91.70;;;;;;4927944;28;86818;-85
2021/04/29 06:07:28;;;;;;;10.40;9.70;;;13.00;93.30;;;;;;4930887;28;86689;-85
2021/04/29 06:09:53;;;;;;;8.27;7.88;;;12.90;92.00;;;;;;4930673;28;86604;-85
2021/04/29 06:12:19;;;;;;;12.07;11.57;;;;;;;;;;4930594;28;86847;-85
2021/04/29 06:14:53;;;;;;;14.23;13.52;;;12.70;91.70;;;;;;4929951;28;87557;-85
2021/04/29 06:17:19;;;;;;;13.20;12.48;;;12.80;89.40;;;;;;4928901;28;86886;-85
2021/04/29 06:19:51;;;;;;;16.40;15.40;;;12.80;90.70;;;;;;4946927;28;86830;-84
2021/04/29 06:22:17;;;;;;;21.17;20.17;;;12.80;90.90;;;;;;4948999;28;87623;-83
2021/04/29 06:24:43;;;;;;;12.60;11.68;;;12.70;91.30;;;;;;4949499;28;87380;-85
2021/04/29 06:27:09;;;;;;;14.48;13.43;;;12.70;90.30;;;;;;4949317;28;86986;-83
2021/04/29 06:29:35;;;;;;;14.52;13.65;;;13.10;96.00;;;;;;4949103;28;86838;-85
2021/04/29 06:32:01;;;;;;;14.27;13.57;;;12.50;90.80;;;;;;4948704;28;88154;-83
2021/04/29 06:34:55;;;;;;;11.75;11.07;;;12.60;90.60;;;;;;4948849;28;87212;-84
2021/04/29 06:37:21;;;;;;;9.93;9.32;;;12.80;90.00;;;;;;4949284;28;86062;-85
2021/04/29 06:39:47;;;;;;;10.45;9.85;;;12.80;89.50;;;;;;4950494;28;86072;-85
2021/04/29 06:42:13;;;;;;;10.43;9.93;;;12.80;90.10;;;;;;4933147;28;88537;-84
2021/04/29 06:44:39;;;;;;;10.68;10.13;;;12.90;90.10;;;;;;4949778;28;86686;-85
2021/04/29 06:47:05;;;;;;;12.48;11.60;;;13.00;89.30;;;;;;4947088;28;87625;-84
2021/04/29 06:49:31;;;;;;;9.43;8.88;;;13.00;89.70;;;;;;4946822;28;86725;-83
2021/04/29 06:51:57;;;;;;;9.75;9.00;;;13.00;86.50;;;;;;4946182;28;88014;-84
2021/04/29 06:54:23;;;;;;;9.82;9.23;;;13.10;86.00;;;;;;4947272;28;87003;-85
2021/04/29 06:56:49;;;;;;;11.38;10.77;;;;;;;;;;4947125;28;86864;-83
2021/04/29 06:59:14;;;;;;;12.05;11.35;;;13.10;84.10;;;;;;4946147;28;86550;-85
2021/04/29 07:01:57;;;;;;;13.48;12.48;;;13.20;85.00;;;;;;4946434;28;86821;-85
2021/04/29 07:04:24;;;;;;;11.65;10.95;;;13.20;85.80;;;;;;4945558;28;87158;-84
2021/04/29 07:06:49;;;;;;;12.88;11.93;;;13.10;84.50;;;;;;4946238;28;86351;-83
2021/04/29 07:09:15;;;;;;;11.73;10.80;;;13.10;86.40;;;;;;4946437;28;86997;-83
2021/04/29 07:11:41;;;;;;;13.35;12.57;;;13.10;86.20;;;;;;4943095;28;88145;-84
2021/04/29 07:14:07;;;;;;;8.68;8.18;;;13.10;86.90;;;;;;4935510;28;88199;-84
2021/04/29 07:16:33;;;;;;;9.10;8.52;;;13.00;88.60;;;;;;4943522;28;86881;-83
2021/04/29 07:18:59;;;;;;;12.95;12.15;;;12.90;90.60;;;;;;4943859;28;86861;-84
2021/04/29 07:21:25;;;;;;;14.48;13.57;;;;;;;;;;4952901;28;87238;-84
2021/04/29 07:23:51;;;;;;;13.77;13.02;;;12.80;92.00;;;;;;4963879;28;86759;-85
2021/04/29 07:26:17;;;;;;;18.27;17.38;;;12.90;92.10;;;;;;4965661;28;86733;-85
2021/04/29 07:28:44;;;;;;;16.67;15.68;;;12.90;92.80;;;;;;4970115;28;86070;-83
2021/04/29 07:31:10;;;;;;;16.45;15.38;;;12.80;93.00;;;;;;4982683;28;87558;-85
2021/04/29 07:33:36;;;;;;;15.50;14.65;;;;;;;;;;4933695;28;87050;-88
2021/04/29 07:36:03;;;;;;;16.67;15.82;;;12.90;92.70;;;;;;4931634;28;87737;-85
2021/04/29 07:38:28;;;;;;;17.48;16.30;;;12.90;92.50;;;;;;4938329;28;86822;-86
2021/04/29 07:40:54;;;;;;;18.42;17.15;;;12.80;92.80;;;;;;4960482;28;87229;-85
2021/04/29 07:43:20;;;;;;;17.67;16.55;;;12.80;92.70;;;;;;4950426;28;86624;-85
2021/04/29 07:45:46;;;;;;;17.35;16.33;;;12.70;93.30;;;;;;4950313;28;86688;-85
2021/04/29 07:48:11;;;;;;;12.93;12.13;;;12.70;94.30;;;;;;4923841;28;754504;-87
2021/04/29 07:50:37;;;;;;;10.05;9.18;;;12.60;94.20;;;;;;4950977;28;87269;-85
2021/04/29 07:53:03;;;;;;;10.10;9.38;;;12.60;94.80;;;;;;4951953;28;86962;-84
2021/04/29 07:55:29;;;;;;;13.23;12.07;;;12.70;94.60;;;;;;4951925;28;86835;-85
2021/04/29 07:57:55;;;;;;;12.27;11.43;;;12.90;95.10;;;;;;4953292;28;86878;-87
2021/04/29 08:00:21;;;;;;;10.98;9.98;;;12.90;94.60;;;;;;4969755;28;87979;-85
2021/04/29 08:02:47;;;;;;;15.55;14.43;;;12.90;94.40;;;;;;4970266;28;88847;-85
2021/04/29 08:05:15;;;;;;;13.90;12.70;;;12.40;98.20;;;;;;4970183;28;86828;-85
2021/04/29 08:07:58;;;;;;;12.75;11.75;;;13.00;96.50;;;;;;4969317;28;86663;-83
2021/04/29 08:10:24;;;;;;;14.45;13.38;;;13.10;96.10;;;;;;4918519;28;88928;-83
2021/04/29 08:12:50;;;;;;;11.80;10.85;;;13.20;95.70;;;;;;4949820;28;86787;-84
2021/04/29 08:15:15;;;;;;;12.05;10.90;;;13.30;96.40;;;;;;4950980;28;86740;-85
2021/04/29 08:17:41;;;;;;;13.48;12.30;;;13.40;96.90;;;;;;4952005;28;85731;-85
2021/04/29 08:20:07;;;;;;;12.52;11.07;;;13.50;96.10;;;;;;4950416;28;86775;-84
2021/04/29 08:22:33;;;;;;;13.90;12.80;;;13.60;95.10;;;;;;4932017;28;89608;-85
2021/04/29 08:25:00;;;;;;;13.35;12.10;;;13.40;94.40;;;;;;4949928;28;87874;-84
2021/04/29 08:27:26;;;;;;;14.52;13.50;;;13.20;95.70;;;;;;4949804;28;86817;-84
2021/04/29 08:29:53;;;;;;;13.65;12.50;;;13.10;95.20;;;;;;4949507;28;87780;-85
2021/04/29 08:32:19;;;;;;;14.65;13.65;;;13.20;95.60;;;;;;4949658;28;86890;-85
2021/04/29 08:34:45;;;;;;;13.88;13.00;;;13.20;95.20;;;;;;4949596;28;87049;-85
2021/04/29 08:37:11;;;;;;;14.68;13.80;;;13.40;95.10;;;;;;4950289;28;86976;-83
2021/04/29 08:39:37;;;;;;;22.67;21.58;;;13.50;94.50;;;;;;4949506;28;87174;-86
2021/04/29 08:42:04;;;;;;;15.55;14.73;;;13.60;92.60;;;;;;4949432;28;87344;-85
2021/04/29 08:44:30;;;;;;;11.27;10.27;;;13.60;91.80;;;;;;4949615;28;86965;-85
2021/04/29 08:46:55;;;;;;;11.90;11.13;;;13.70;91.20;;;;;;4949733;28;86828;-85
2021/04/29 08:49:22;;;;;;;11.52;10.43;;;13.90;91.80;;;;;;4948628;28;89052;-85
2021/04/29 08:51:51;;;;;;;13.93;12.95;;;14.30;94.60;;;;;;4931637;28;91267;-85
2021/04/29 08:54:17;;;;;;;12.27;11.27;;;14.10;90.30;;;;;;4949807;28;86708;-84
2021/04/29 08:56:43;;;;;;;16.77;15.85;;;14.20;90.40;;;;;;4950077;28;86265;-85
2021/04/29 08:59:08;;;;;;;12.93;12.13;;;14.20;88.90;;;;;;4949484;28;87062;-84
2021/04/29 09:01:55;;;;;;;11.07;10.38;;;14.00;86.90;;;;;;4949393;28;86829;-87
2021/04/29 09:04:21;;;;;;;16.00;15.10;;;13.90;87.50;;;;;;4949505;28;86673;-85
2021/04/29 09:06:48;;;;;;;16.48;15.38;;;13.80;89.00;;;;;;4950807;28;86316;-85
2021/04/29 09:09:15;;;;;;;11.63;10.82;;;13.80;89.00;;;;;;4948795;28;86678;-84
2021/04/29 09:11:55;;;;;;;14.27;13.30;;;13.90;90.30;;;;;;4949189;28;88151;-85
2021/04/29 09:14:35;;;;;;;14.18;13.40;;;14.10;91.00;;;;;;4949647;28;87668;-85
2021/04/29 09:20:22;;;;;;;14.13;13.15;;;14.60;90.70;;;;;;4947415;28;86695;-84
2021/04/29 09:23:02;;;;;;;13.10;12.30;;;14.70;90.10;;;;;;4949665;28;86719;-85
2021/04/29 09:25:30;;;;;;;12.13;11.23;;;14.90;89.70;;;;;;4950107;28;86745;-84
2021/04/29 09:31:26;;;;;;;12.60;11.73;;;15.30;82.60;;;;;;4927879;28;86349;-83
2021/04/29 09:33:59;;;;;;;18.10;17.08;;;15.40;76.90;;;;;;4931573;28;86997;-84
2021/04/29 09:39:46;;;;;;;16.73;15.88;;;15.50;75.70;;;;;;4946575;28;86716;-86
2021/04/29 09:42:15;;;;;;;16.42;15.20;;;15.60;73.30;;;;;;4949212;28;88272;-85
2021/04/29 09:44:40;;;;;;;13.80;12.98;;;15.60;72.70;;;;;;4916938;28;88376;-85
2021/04/29 09:47:20;;;;;;;13.35;12.45;;;15.70;73.40;;;;;;4948527;28;86894;-85
2021/04/29 09:50:05;;;;;;;16.67;15.57;;;15.60;73.70;;;;;;4950144;28;86707;-85
2021/04/29 09:52:36;;;;;;;16.63;15.73;;;15.40;76.00;;;;;;4949562;28;86846;-85
2021/04/29 09:55:04;;;;;;;;;;;15.50;75.40;;;;;;4950890;28;86721;-85
2021/04/29 09:57:30;;;;;;;12.77;12.10;;;15.70;74.20;;;;;;4964292;28;86956;-85
2021/04/29 10:00:11;;;;;;;10.45;9.60;;;15.90;69.30;;;;;;4960826;28;86148;-85
2021/04/29 10:02:37;;;;;;;16.35;15.35;;;15.80;65.40;;;;;;4950551;28;86761;-86
2021/04/29 10:05:04;;;;;;;16.05;15.05;;;16.20;74.50;;;;;;4950413;28;86983;-91
2021/04/29 10:07:30;;;;;;;8.30;7.63;;;16.00;65.30;;;;;;4949558;28;87917;-85
2021/04/29 10:09:55;;;;;;;9.18;7.47;;;16.30;64.90;;;;;;4952641;28;86783;-85
2021/04/29 10:12:25;;;;;;;8.20;7.63;;;16.50;65.60;;;;;;4959160;28;87369;-83
2021/04/29 10:14:52;;;;;;;8.70;8.02;;;16.60;65.90;;;;;;4963954;28;87370;-83
2021/04/29 10:17:19;;;;;;;7.80;7.05;;;16.80;65.10;;;;;;4963285;28;86951;-83
2021/04/29 10:19:54;;;;;;;8.77;8.07;;;17.20;64.60;;;;;;4963903;28;86308;-84
2021/04/29 10:22:23;;;;;;;11.35;10.60;;;17.30;62.40;;;;;;4963989;28;86574;-83
2021/04/29 10:24:49;;;;;;;20.75;19.40;;;17.40;61.70;;;;;;4963489;28;86295;-82
2021/04/29 10:27:26;;;;;;;27.92;26.38;;;17.60;62.20;;;;;;4961861;28;86738;-85
2021/04/29 10:30:11;;;;;;;73.78;70.53;;;17.70;62.50;;;;;;4949665;28;86712;-84
2021/04/29 10:32:38;;;;;;;70.68;67.45;;;17.60;59.20;;;;;;4948313;28;88863;-85
2021/04/29 10:35:20;;;;;;;97.28;93.15;;;17.50;61.30;;;;;;4950576;28;87214;-85
2021/04/29 10:38:00;;;;;;;87.63;83.38;;;17.40;60.40;;;;;;4948638;28;86567;-84
2021/04/29 10:43:37;;;;;;;58.55;55.90;;;17.00;59.50;;;;;;4848638;29;86921;-83
2021/04/29 10:46:05;;;;;;;38.63;36.67;;;16.50;59.90;;;;;;4939364;28;87455;-83
2021/04/29 10:48:33;;;;;;;56.40;53.95;;;16.50;60.50;;;;;;4947274;28;86870;-83
2021/04/29 10:51:07;;;;;;;27.00;25.42;;;16.40;62.80;;;;;;4950038;28;85915;-84
2021/04/29 10:53:35;;;;;;;16.33;15.02;;;16.50;66.10;;;;;;4926340;28;90903;-84
2021/04/29 10:56:16;;;;;;;20.60;19.50;;;15.90;61.50;;;;;;4931181;28;88142;-85
2021/04/29 10:58:42;;;;;;;16.13;15.25;;;15.80;64.20;;;;;;4949403;28;87859;-84
2021/04/29 11:01:13;;;;;;;17.85;16.63;;;15.90;63.40;;;;;;4932387;28;87084;-83
2021/04/29 11:03:49;;;;;;;39.00;37.22;;;15.90;62.90;;;;;;4947806;28;88217;-85
2021/04/29 11:06:19;;;;;;;38.03;35.45;;;16.00;63.90;;;;;;4950796;28;87042;-83
2021/04/29 11:08:53;;;;;;;31.73;30.20;;;16.10;64.70;;;;;;4955521;28;86832;-86
2021/04/29 11:11:20;;;;;;;34.95;33.22;;;16.10;63.40;;;;;;4948963;28;86486;-86
2021/04/29 11:13:59;;;;;;;30.90;29.33;;;16.10;64.40;;;;;;4948322;28;87194;-82
2021/04/29 11:16:25;;;;;;;27.42;25.88;;;16.10;62.80;;;;;;4948427;28;86429;-84
2021/04/29 11:18:50;;;;;;;38.33;36.58;;;16.10;64.30;;;;;;4952886;28;86617;-85
2021/04/29 11:21:25;;;;;;;34.15;32.28;;;16.10;63.00;;;;;;4949174;28;87054;-83
2021/04/29 11:23:51;;;;;;;30.65;29.17;;;16.10;62.30;;;;;;4947399;28;87845;-84
2021/04/29 11:26:20;;;;;;;33.38;31.85;;;16.20;63.10;;;;;;4949369;28;89326;-83
2021/04/29 11:28:48;;;;;;;36.13;34.58;;;16.50;67.90;;;;;;4952389;28;86902;-83
2021/04/29 11:31:17;;;;;;;23.55;22.45;;;16.30;62.50;;;;;;4961292;28;86532;-82
2021/04/29 11:33:46;;;;;;;17.45;16.48;;;16.30;60.60;;;;;;4949055;28;87143;-82
2021/04/29 11:36:18;;;;;;;15.93;14.63;;;16.20;61.80;;;;;;4948952;28;86597;-84
2021/04/29 11:39:00;;;;;;;37.70;35.85;;;16.10;61.40;;;;;;4950039;28;86528;-83
2021/04/29 11:41:27;;;;;;;40.95;38.97;;;16.00;63.70;;;;;;4948407;28;86341;-82
2021/04/29 11:44:02;;;;;;;40.25;38.20;;;16.00;64.30;;;;;;4948199;28;88117;-84
2021/04/29 11:46:28;;;;;;;20.70;19.40;;;15.90;66.40;;;;;;4948177;28;87126;-82
2021/04/29 11:48:59;;;;;;;43.45;41.25;;;15.80;67.70;;;;;;4940343;28;87631;-84
2021/04/29 11:54:28;;;;;;;47.35;45.00;;;15.70;71.10;;;;;;4908074;28;86897;-83
2021/04/29 11:56:59;;;;;;;41.35;39.05;;;15.70;71.80;;;;;;4909144;28;87500;-83
2021/04/29 12:02:17;;;;;;;18.23;17.20;;;15.60;74.20;;;;;;4909249;28;86836;-84
2021/04/29 12:04:45;;;;;;;14.90;13.70;;;15.60;73.70;;;;;;4909132;28;87129;-83
2021/04/29 12:07:11;;;;;;;13.98;13.07;;;15.50;75.50;;;;;;4909560;28;87010;-83
2021/04/29 12:09:37;;;;;;;13.52;12.60;;;15.50;75.60;;;;;;4908545;28;86595;-84
2021/04/29 12:12:19;;;;;;;15.43;14.25;;;15.40;76.80;;;;;;4909412;28;87043;-83
2021/04/29 12:14:54;;;;;;;16.45;15.32;;;15.40;78.90;;;;;;4909004;28;87930;-84
2021/04/29 12:17:20;;;;;;;13.18;12.20;;;15.40;78.00;;;;;;4912354;28;88282;-84
2021/04/29 12:19:52;;;;;;;13.50;12.52;;;15.40;77.40;;;;;;4912295;28;87259;-83
2021/04/29 12:22:21;;;;;;;14.18;13.18;;;15.40;77.90;;;;;;4913632;28;87066;-84
2021/04/29 12:24:47;;;;;;;14.48;13.13;;;15.30;77.70;;;;;;4913981;28;87930;-84
2021/04/29 12:27:15;;;;;;;13.75;12.80;;;15.30;77.60;;;;;;4913718;28;86867;-83
2021/04/29 12:29:40;;;;;;;16.45;15.48;;;15.30;77.60;;;;;;4913926;28;86438;-84
2021/04/29 12:32:06;;;;;;;15.57;14.57;;;15.30;77.80;;;;;;4917450;28;86127;-83
2021/04/29 12:34:32;;;;;;;14.52;13.40;;;15.00;85.60;;;;;;4911300;28;87006;-83
2021/04/29 12:37:06;;;;;;;13.45;12.25;;;15.20;77.80;;;;;;4911390;28;86636;-82
2021/04/29 12:39:59;;;;;;;12.90;11.90;;;15.20;78.70;;;;;;4910082;28;87837;-83
2021/04/29 12:42:25;;;;;;;13.93;12.82;;;15.20;80.30;;;;;;4910081;28;86178;-82
2021/04/29 12:45:00;;;;;;;17.33;16.17;;;15.10;82.10;;;;;;4910545;28;88136;-82
2021/04/29 12:47:28;;;;;;;16.70;15.48;;;15.20;81.90;;;;;;4910565;28;87017;-82
2021/04/29 12:50:02;;;;;;;14.07;13.18;;;15.30;82.20;;;;;;4918194;28;86852;-82
2021/04/29 12:52:29;;;;;;;12.07;11.18;;;15.30;82.00;;;;;;4925211;28;87248;-82
2021/04/29 12:54:56;;;;;;;12.02;11.15;;;15.40;82.30;;;;;;4917887;28;87272;-83
2021/04/29 12:57:22;;;;;;;13.38;12.45;;;15.50;82.80;;;;;;4925722;28;88912;-84
2021/04/29 12:59:51;;;;;;;13.55;12.38;;;15.70;82.00;;;;;;4898935;28;86880;-86
2021/04/29 13:02:24;;;;;;;12.68;11.95;;;15.80;84.00;;;;;;4941561;28;86897;-86
2021/04/29 13:05:12;;;;;;;15.32;14.32;;;15.90;81.50;;;;;;4935866;28;87758;-84
2021/04/29 13:07:40;;;;;;;16.92;15.65;;;15.90;84.40;;;;;;4912746;28;89289;-84
2021/04/29 13:10:17;;;;;;;16.92;15.73;;;15.90;84.50;;;;;;4912366;28;86780;-84
2021/04/29 13:12:49;;;;;;;18.25;16.85;;;16.00;87.90;;;;;;4912563;28;86866;-84
2021/04/29 13:15:15;;;;;;;15.05;14.00;;;15.90;82.70;;;;;;4927705;28;88861;-84
2021/04/29 13:17:44;;;;;;;17.65;16.48;;;17.10;84.10;;;;;;4929510;28;87592;-85
2021/04/29 13:20:11;;;;;;;17.67;16.42;;;17.30;89.20;;;;;;4941086;28;86830;-87
2021/04/29 13:22:39;;;;;;;14.30;13.45;;;17.30;88.10;;;;;;4937225;28;85800;-85
2021/04/29 13:25:09;;;;;;;15.57;14.57;;;16.70;82.20;;;;;;4929681;28;88161;-84
2021/04/29 13:27:46;;;;;;;17.45;16.15;;;16.50;79.80;;;;;;4929969;28;87119;-85
2021/04/29 13:30:13;;;;;;;11.13;9.77;;;16.20;81.10;;;;;;4929542;28;87745;-85
2021/04/29 13:32:39;;;;;;;10.63;9.98;;;16.10;77.50;;;;;;4930148;28;86836;-83
2021/04/29 13:35:06;;;;;;;11.32;10.43;;;16.10;79.60;;;;;;4929519;28;87450;-83
2021/04/29 13:37:34;;;;;;;13.02;12.02;;;16.10;77.50;;;;;;4927495;28;90250;-83
2021/04/29 13:40:00;;;;;;;10.65;9.85;;;16.10;78.40;;;;;;4929109;28;86840;-84
2021/04/29 13:42:25;;;;;;;12.77;11.98;;;16.10;77.50;;;;;;4930113;28;86839;-83
2021/04/29 13:44:52;;;;;;;10.20;9.50;;;16.10;77.60;;;;;;4932201;28;86767;-85
2021/04/29 13:47:18;;;;;;;14.18;13.25;;;16.00;79.20;;;;;;4930735;28;88462;-84
2021/04/29 13:49:43;;;;;;;14.88;14.07;;;15.90;77.90;;;;;;4943517;28;86877;-84
2021/04/29 13:52:09;;;;;;;24.80;23.48;;;15.90;76.40;;;;;;4959451;28;86610;-82
2021/04/29 13:54:35;;;;;;;18.42;17.30;;;15.90;74.20;;;;;;4929581;28;89619;-85
2021/04/29 13:57:01;;;;;;;20.23;18.98;;;;;;;;;;4948848;28;87355;-86
2021/04/29 13:59:27;;;;;;;18.02;16.83;;;16.30;74.70;;;;;;4929772;28;86905;-83
2021/04/29 14:01:52;;;;;;;16.08;15.27;;;16.40;75.00;;;;;;4946288;28;86830;-82
2021/04/29 14:04:19;;;;;;;17.52;16.27;;;16.60;76.20;;;;;;4947474;28;86837;-82
2021/04/29 14:06:45;;;;;;;12.35;11.75;;;16.60;75.00;;;;;;4946540;28;87085;-83
2021/04/29 14:09:11;;;;;;;13.30;12.50;;;16.30;75.30;;;;;;4946089;28;86982;-85
2021/04/29 14:11:37;;;;;;;13.35;12.25;;;16.20;77.70;;;;;;4946860;28;86193;-83
2021/04/29 14:14:03;;;;;;;17.70;16.85;;;17.20;81.00;;;;;;4945788;28;87955;-84
2021/04/29 14:16:29;;;;;;;19.90;18.77;;;16.90;82.20;;;;;;4945852;28;86791;-84
2021/04/29 14:18:55;;;;;;;13.50;12.70;;;16.50;77.30;;;;;;4960671;28;87615;-83
2021/04/29 14:21:21;;;;;;;27.67;26.33;;;16.80;76.30;;;;;;4965020;28;86843;-82
2021/04/29 14:23:47;;;;;;;24.40;23.23;;;17.00;72.30;;;;;;4964264;28;88246;-84
2021/04/29 14:26:15;;;;;;;23.48;22.38;;;17.10;73.00;;;;;;4946579;28;86707;-83
2021/04/29 14:28:41;;;;;;;23.35;22.25;;;17.30;74.40;;;;;;4945445;28;86884;-83
2021/04/29 14:31:07;;;;;;;42.20;40.45;;;17.30;71.30;;;;;;4945635;28;87039;-84
2021/04/29 14:33:33;;;;;;;101.88;97.40;;;17.00;71.80;;;;;;4944214;28;87287;-83
2021/04/29 14:35:59;;;;;;;96.78;92.65;;;17.10;67.30;;;;;;4927910;28;90263;-83
2021/04/29 14:38:26;;;;;;;99.57;95.43;;;17.20;68.70;;;;;;4946669;28;86929;-85
2021/04/29 14:40:52;;;;;;;74.07;70.88;;;17.30;68.80;;;;;;4946639;28;86740;-83
2021/04/29 14:43:18;;;;;;;60.03;57.33;;;17.50;67.10;;;;;;4949374;28;87779;-84
2021/04/29 14:45:44;;;;;;;53.50;51.05;;;17.60;67.20;;;;;;4958460;28;88471;-86
2021/04/29 14:48:09;;;;;;;72.40;68.95;;;17.50;66.30;;;;;;4964728;28;86408;-86
2021/04/29 14:50:39;;;;;;;63.40;60.53;;;17.50;68.90;;;;;;4948481;28;86885;-87
2021/04/29 14:53:08;;;;;;;64.05;61.13;;;17.60;68.70;;;;;;4951685;28;87823;-86
2021/04/29 14:55:35;;;;;;;48.55;46.33;;;17.60;69.60;;;;;;4947017;28;87326;-83
2021/04/29 14:58:01;;;;;;;39.28;37.17;;;17.70;69.50;;;;;;4947932;28;86760;-87
2021/04/29 15:00:31;;;;;;;55.50;50.83;;;17.80;71.00;;;;;;4922164;28;86266;-85
2021/04/29 15:03:03;;;;;;;38.15;36.25;;;17.80;70.30;;;;;;4939879;28;86923;-84
2021/04/29 15:05:30;;;;;;;30.80;29.05;;;17.80;67.20;;;;;;4947118;28;86681;-85
2021/04/29 15:07:56;;;;;;;32.55;31.00;;;17.90;70.20;;;;;;4944805;28;87948;-83
2021/04/29 15:10:26;;;;;;;38.45;36.28;;;17.50;69.30;;;;;;4943769;28;87108;-89
2021/04/29 15:12:52;;;;;;;46.88;44.75;;;17.40;69.40;;;;;;4927317;28;88408;-82
2021/04/29 15:15:20;;;;;;;39.90;37.92;;;17.40;71.40;;;;;;4954167;28;87212;-83
2021/04/29 15:17:46;;;;;;;45.53;43.40;;;17.50;71.30;;;;;;4963829;28;86663;-83
2021/04/29 15:20:13;;;;;;;39.17;37.40;;;17.70;76.10;;;;;;4927261;28;86949;-83
2021/04/29 15:22:39;;;;;;;48.22;45.83;;;17.40;73.50;;;;;;4926009;28;87017;-82
2021/04/29 15:25:08;;;;;;;57.33;54.78;;;17.30;71.00;;;;;;4944219;28;86315;-83
2021/04/29 15:27:34;;;;;;;40.15;38.22;;;17.30;69.60;;;;;;4945737;28;86829;-83
2021/04/29 15:29:59;;;;;;;43.03;40.83;;;16.90;73.40;;;;;;4947977;28;86782;-85
2021/04/29 15:32:25;;;;;;;57.22;54.30;;;17.10;68.80;;;;;;4946657;28;88055;-84
2021/04/29 15:34:51;;;;;;;77.38;74.15;;;;;;;;;;4947768;28;87986;-84
2021/04/29 15:37:20;;;;;;;39.80;37.83;;;17.10;70.70;;;;;;4931108;28;86618;-85
2021/04/29 15:39:45;;;;;;;54.78;52.22;;;16.90;78.70;;;;;;4944970;28;86484;-83
2021/04/29 15:42:11;;;;;;;28.98;27.55;;;;;;;;;;4952043;28;87481;-86
2021/04/29 15:45:12;;;;;;;29.55;28.05;;;17.10;73.60;;;;;;4931219;28;87513;-84
2021/04/29 15:47:38;;;;;;;21.23;19.93;;;17.10;76.80;;;;;;5010007;22;86920;-87
2021/04/29 15:50:04;;;;;;;32.15;30.38;;;17.00;74.90;;;;;;4931402;28;86111;-85
2021/04/29 15:52:30;;;;;;;28.23;26.83;;;16.50;83.10;;;;;;4930543;28;89407;-85
2021/04/29 15:54:56;;;;;;;49.58;47.17;;;16.70;78.40;;;;;;4943687;28;86722;-82
2021/04/29 15:57:22;;;;;;;22.75;21.52;;;;;;;;;;4937746;28;87924;-86
2021/04/29 15:59:48;;;;;;;23.48;22.27;;;16.20;74.00;;;;;;4932227;28;86846;-85